sensor_id;sensor_type;location;lat;lon;timestamp;P1;durP1;ratioP1;P2;durP2;ratioP2
57111;SDS011;42992;49.084;19.300;2023-03-01T00:00:34;30.88;;;17.38;;
57111;SDS011;42992;49.084;19.300;2023-03-01T00:02:59;33.63;;;18.40;;
57111;SDS011;42992;49.084;19.300;2023-03-01T00:05:24;35.65;;;18.90;;
57111;SDS011;42992;49.084;19.300;2023-03-01T00:07:52;36.17;;;19.23;;
57111;SDS011;42992;49.084;19.300;2023-03-01T00:10:17;39.35;;;20.10;;
57111;SDS011;42992;49.084;19.300;2023-03-01T00:12:42;38.45;;;19.45;;
57111;SDS011;42992;49.084;19.300;2023-03-01T00:15:08;38.13;;;20.00;;
57111;SDS011;42992;49.084;19.300;2023-03-01T00:17:33;37.50;;;20.42;;
57111;SDS011;42992;49.084;19.300;2023-03-01T00:19:58;38.17;;;19.90;;
57111;SDS011;42992;49.084;19.300;2023-03-01T00:22:23;41.05;;;22.48;;
57111;SDS011;42992;49.084;19.300;2023-03-01T00:24:49;48.08;;;22.38;;
57111;SDS011;42992;49.084;19.300;2023-03-01T00:27:14;42.08;;;22.20;;
57111;SDS011;42992;49.084;19.300;2023-03-01T00:29:39;45.47;;;22.17;;
57111;SDS011;42992;49.084;19.300;2023-03-01T00:32:04;46.70;;;23.20;;
57111;SDS011;42992;49.084;19.300;2023-03-01T00:34:30;47.10;;;22.83;;
57111;SDS011;42992;49.084;19.300;2023-03-01T00:36:57;43.90;;;22.15;;
57111;SDS011;42992;49.084;19.300;2023-03-01T00:39:29;44.63;;;24.92;;
57111;SDS011;42992;49.084;19.300;2023-03-01T00:41:55;43.83;;;22.08;;
57111;SDS011;42992;49.084;19.300;2023-03-01T00:44:21;50.88;;;25.00;;
57111;SDS011;42992;49.084;19.300;2023-03-01T00:46:46;47.28;;;25.27;;
57111;SDS011;42992;49.084;19.300;2023-03-01T00:49:11;49.00;;;25.40;;
57111;SDS011;42992;49.084;19.300;2023-03-01T00:51:37;57.88;;;27.92;;
57111;SDS011;42992;49.084;19.300;2023-03-01T00:54:04;47.80;;;24.50;;
57111;SDS011;42992;49.084;19.300;2023-03-01T00:56:29;43.83;;;22.90;;
57111;SDS011;42992;49.084;19.300;2023-03-01T00:58:55;47.10;;;23.92;;
57111;SDS011;42992;49.084;19.300;2023-03-01T01:01:22;54.58;;;25.55;;
57111;SDS011;42992;49.084;19.300;2023-03-01T01:03:48;53.35;;;25.05;;
57111;SDS011;42992;49.084;19.300;2023-03-01T01:06:18;52.95;;;25.10;;
57111;SDS011;42992;49.084;19.300;2023-03-01T01:08:44;51.03;;;25.55;;
57111;SDS011;42992;49.084;19.300;2023-03-01T01:11:11;50.78;;;24.60;;
57111;SDS011;42992;49.084;19.300;2023-03-01T01:13:37;53.03;;;25.10;;
57111;SDS011;42992;49.084;19.300;2023-03-01T01:16:02;51.97;;;24.63;;
57111;SDS011;42992;49.084;19.300;2023-03-01T01:18:27;52.65;;;23.58;;
57111;SDS011;42992;49.084;19.300;2023-03-01T01:20:52;51.15;;;25.63;;
57111;SDS011;42992;49.084;19.300;2023-03-01T01:23:18;47.88;;;23.40;;
57111;SDS011;42992;49.084;19.300;2023-03-01T01:25:43;50.08;;;24.73;;
57111;SDS011;42992;49.084;19.300;2023-03-01T01:28:08;52.15;;;25.10;;
57111;SDS011;42992;49.084;19.300;2023-03-01T01:30:33;51.10;;;25.02;;
57111;SDS011;42992;49.084;19.300;2023-03-01T01:32:59;46.63;;;24.13;;
57111;SDS011;42992;49.084;19.300;2023-03-01T01:35:24;47.92;;;25.50;;
57111;SDS011;42992;49.084;19.300;2023-03-01T01:37:49;51.15;;;23.35;;
57111;SDS011;42992;49.084;19.300;2023-03-01T01:40:14;53.25;;;24.67;;
57111;SDS011;42992;49.084;19.300;2023-03-01T01:42:40;47.97;;;24.15;;
57111;SDS011;42992;49.084;19.300;2023-03-01T01:45:47;49.10;;;23.30;;
57111;SDS011;42992;49.084;19.300;2023-03-01T01:47:54;48.10;;;23.80;;
57111;SDS011;42992;49.084;19.300;2023-03-01T01:50:20;42.22;;;22.65;;
57111;SDS011;42992;49.084;19.300;2023-03-01T01:52:46;45.88;;;24.02;;
57111;SDS011;42992;49.084;19.300;2023-03-01T01:55:20;42.35;;;21.77;;
57111;SDS011;42992;49.084;19.300;2023-03-01T01:57:51;38.55;;;20.45;;
57111;SDS011;42992;49.084;19.300;2023-03-01T02:00:19;38.95;;;19.23;;
57111;SDS011;42992;49.084;19.300;2023-03-01T02:02:45;39.22;;;20.10;;
57111;SDS011;42992;49.084;19.300;2023-03-01T02:05:57;35.97;;;17.98;;
57111;SDS011;42992;49.084;19.300;2023-03-01T02:07:57;38.75;;;18.67;;
57111;SDS011;42992;49.084;19.300;2023-03-01T02:10:24;35.50;;;17.92;;
57111;SDS011;42992;49.084;19.300;2023-03-01T02:12:51;42.70;;;20.50;;
57111;SDS011;42992;49.084;19.300;2023-03-01T02:15:16;39.97;;;20.05;;
57111;SDS011;42992;49.084;19.300;2023-03-01T02:17:42;37.00;;;18.83;;
57111;SDS011;42992;49.084;19.300;2023-03-01T02:20:14;34.75;;;18.67;;
57111;SDS011;42992;49.084;19.300;2023-03-01T02:22:41;38.17;;;18.80;;
57111;SDS011;42992;49.084;19.300;2023-03-01T02:30:18;35.72;;;18.77;;
57111;SDS011;42992;49.084;19.300;2023-03-01T02:32:43;36.75;;;19.00;;
57111;SDS011;42992;49.084;19.300;2023-03-01T02:35:10;33.85;;;18.08;;
57111;SDS011;42992;49.084;19.300;2023-03-01T02:37:36;35.20;;;17.85;;
57111;SDS011;42992;49.084;19.300;2023-03-01T02:40:04;33.88;;;17.10;;
57111;SDS011;42992;49.084;19.300;2023-03-01T02:42:31;36.15;;;17.48;;
57111;SDS011;42992;49.084;19.300;2023-03-01T02:44:58;32.92;;;17.75;;
57111;SDS011;42992;49.084;19.300;2023-03-01T02:47:24;34.45;;;17.88;;
57111;SDS011;42992;49.084;19.300;2023-03-01T02:49:49;35.53;;;18.00;;
57111;SDS011;42992;49.084;19.300;2023-03-01T02:54:47;36.45;;;19.10;;
57111;SDS011;42992;49.084;19.300;2023-03-01T02:57:14;34.35;;;17.40;;
57111;SDS011;42992;49.084;19.300;2023-03-01T02:59:39;34.05;;;18.38;;
57111;SDS011;42992;49.084;19.300;2023-03-01T03:02:06;38.25;;;21.00;;
57111;SDS011;42992;49.084;19.300;2023-03-01T03:04:32;35.60;;;20.02;;
57111;SDS011;42992;49.084;19.300;2023-03-01T03:06:57;42.50;;;21.00;;
57111;SDS011;42992;49.084;19.300;2023-03-01T03:09:23;41.22;;;22.00;;
57111;SDS011;42992;49.084;19.300;2023-03-01T03:11:48;48.05;;;24.05;;
57111;SDS011;42992;49.084;19.300;2023-03-01T03:14:14;45.97;;;23.02;;
57111;SDS011;42992;49.084;19.300;2023-03-01T03:16:41;43.92;;;23.13;;
57111;SDS011;42992;49.084;19.300;2023-03-01T03:19:06;44.45;;;22.33;;
57111;SDS011;42992;49.084;19.300;2023-03-01T03:21:32;45.33;;;21.88;;
57111;SDS011;42992;49.084;19.300;2023-03-01T03:23:58;42.13;;;22.20;;
57111;SDS011;42992;49.084;19.300;2023-03-01T03:26:23;39.17;;;18.65;;
57111;SDS011;42992;49.084;19.300;2023-03-01T03:28:48;39.50;;;18.85;;
57111;SDS011;42992;49.084;19.300;2023-03-01T03:31:13;38.33;;;19.73;;
57111;SDS011;42992;49.084;19.300;2023-03-01T03:33:39;42.92;;;20.58;;
57111;SDS011;42992;49.084;19.300;2023-03-01T03:36:04;35.30;;;19.02;;
57111;SDS011;42992;49.084;19.300;2023-03-01T03:38:29;28.30;;;16.42;;
57111;SDS011;42992;49.084;19.300;2023-03-01T03:41:02;28.63;;;15.15;;
57111;SDS011;42992;49.084;19.300;2023-03-01T03:43:28;26.30;;;14.23;;
57111;SDS011;42992;49.084;19.300;2023-03-01T03:45:53;34.63;;;14.35;;
57111;SDS011;42992;49.084;19.300;2023-03-01T03:48:19;30.17;;;15.52;;
57111;SDS011;42992;49.084;19.300;2023-03-01T03:50:49;32.88;;;16.27;;
57111;SDS011;42992;49.084;19.300;2023-03-01T03:53:14;29.98;;;15.35;;
57111;SDS011;42992;49.084;19.300;2023-03-01T03:55:39;33.70;;;17.20;;
57111;SDS011;42992;49.084;19.300;2023-03-01T03:58:06;31.73;;;15.68;;
57111;SDS011;42992;49.084;19.300;2023-03-01T04:00:35;31.60;;;16.20;;
57111;SDS011;42992;49.084;19.300;2023-03-01T04:03:01;29.45;;;16.30;;
57111;SDS011;42992;49.084;19.300;2023-03-01T04:05:27;28.25;;;15.73;;
57111;SDS011;42992;49.084;19.300;2023-03-01T04:07:52;35.17;;;16.90;;
57111;SDS011;42992;49.084;19.300;2023-03-01T04:10:26;32.42;;;16.10;;
57111;SDS011;42992;49.084;19.300;2023-03-01T04:12:51;30.10;;;14.90;;
57111;SDS011;42992;49.084;19.300;2023-03-01T04:15:17;31.10;;;15.70;;
57111;SDS011;42992;49.084;19.300;2023-03-01T04:17:43;27.60;;;14.93;;
57111;SDS011;42992;49.084;19.300;2023-03-01T04:20:09;32.80;;;15.98;;
57111;SDS011;42992;49.084;19.300;2023-03-01T04:22:38;30.33;;;15.18;;
57111;SDS011;42992;49.084;19.300;2023-03-01T04:25:03;30.20;;;15.23;;
57111;SDS011;42992;49.084;19.300;2023-03-01T04:27:30;31.98;;;15.88;;
57111;SDS011;42992;49.084;19.300;2023-03-01T04:29:56;31.50;;;16.25;;
57111;SDS011;42992;49.084;19.300;2023-03-01T04:32:21;34.45;;;16.00;;
57111;SDS011;42992;49.084;19.300;2023-03-01T04:34:47;34.83;;;16.70;;
57111;SDS011;42992;49.084;19.300;2023-03-01T04:37:12;28.17;;;15.15;;
57111;SDS011;42992;49.084;19.300;2023-03-01T04:39:37;40.00;;;19.50;;
57111;SDS011;42992;49.084;19.300;2023-03-01T04:42:10;41.33;;;20.20;;
57111;SDS011;42992;49.084;19.300;2023-03-01T04:44:35;49.60;;;24.20;;
57111;SDS011;42992;49.084;19.300;2023-03-01T04:47:01;50.70;;;27.08;;
57111;SDS011;42992;49.084;19.300;2023-03-01T04:49:26;44.65;;;23.77;;
57111;SDS011;42992;49.084;19.300;2023-03-01T04:51:51;40.58;;;20.95;;
57111;SDS011;42992;49.084;19.300;2023-03-01T04:54:16;47.40;;;23.48;;
57111;SDS011;42992;49.084;19.300;2023-03-01T04:56:42;48.28;;;24.40;;
57111;SDS011;42992;49.084;19.300;2023-03-01T04:59:07;51.10;;;24.80;;
57111;SDS011;42992;49.084;19.300;2023-03-01T05:01:34;44.72;;;23.40;;
57111;SDS011;42992;49.084;19.300;2023-03-01T05:04:00;51.03;;;23.25;;
57111;SDS011;42992;49.084;19.300;2023-03-01T05:06:28;47.65;;;23.90;;
57111;SDS011;42992;49.084;19.300;2023-03-01T05:08:53;50.42;;;22.85;;
57111;SDS011;42992;49.084;19.300;2023-03-01T05:11:18;64.50;;;24.90;;
57111;SDS011;42992;49.084;19.300;2023-03-01T05:13:44;53.58;;;23.08;;
57111;SDS011;42992;49.084;19.300;2023-03-01T05:16:09;48.63;;;22.00;;
57111;SDS011;42992;49.084;19.300;2023-03-01T05:18:36;41.67;;;21.02;;
57111;SDS011;42992;49.084;19.300;2023-03-01T05:21:03;38.47;;;20.70;;
57111;SDS011;42992;49.084;19.300;2023-03-01T05:23:32;44.50;;;21.92;;
57111;SDS011;42992;49.084;19.300;2023-03-01T05:25:58;50.40;;;22.50;;
57111;SDS011;42992;49.084;19.300;2023-03-01T05:28:24;43.20;;;20.95;;
57111;SDS011;42992;49.084;19.300;2023-03-01T05:30:50;42.83;;;22.83;;
57111;SDS011;42992;49.084;19.300;2023-03-01T05:33:16;43.90;;;21.30;;
57111;SDS011;42992;49.084;19.300;2023-03-01T05:35:42;48.47;;;22.10;;
57111;SDS011;42992;49.084;19.300;2023-03-01T05:38:09;39.60;;;19.48;;
57111;SDS011;42992;49.084;19.300;2023-03-01T05:40:38;40.33;;;21.25;;
57111;SDS011;42992;49.084;19.300;2023-03-01T05:43:03;42.50;;;20.33;;
57111;SDS011;42992;49.084;19.300;2023-03-01T05:45:32;45.17;;;21.00;;
57111;SDS011;42992;49.084;19.300;2023-03-01T05:47:59;41.58;;;21.80;;
57111;SDS011;42992;49.084;19.300;2023-03-01T05:50:25;44.78;;;22.10;;
57111;SDS011;42992;49.084;19.300;2023-03-01T05:52:52;49.97;;;24.80;;
57111;SDS011;42992;49.084;19.300;2023-03-01T05:55:18;46.90;;;21.77;;
57111;SDS011;42992;49.084;19.300;2023-03-01T05:57:44;51.03;;;23.17;;
57111;SDS011;42992;49.084;19.300;2023-03-01T06:00:10;43.53;;;21.83;;
57111;SDS011;42992;49.084;19.300;2023-03-01T06:02:36;37.88;;;21.00;;
57111;SDS011;42992;49.084;19.300;2023-03-01T06:05:01;45.40;;;21.65;;
57111;SDS011;42992;49.084;19.300;2023-03-01T06:07:27;43.17;;;22.83;;
57111;SDS011;42992;49.084;19.300;2023-03-01T06:09:53;45.90;;;23.67;;
57111;SDS011;42992;49.084;19.300;2023-03-01T06:12:21;42.47;;;21.90;;
57111;SDS011;42992;49.084;19.300;2023-03-01T06:14:47;51.97;;;24.73;;
57111;SDS011;42992;49.084;19.300;2023-03-01T06:17:13;52.33;;;23.05;;
57111;SDS011;42992;49.084;19.300;2023-03-01T06:19:38;51.38;;;25.80;;
57111;SDS011;42992;49.084;19.300;2023-03-01T06:22:08;51.13;;;24.40;;
57111;SDS011;42992;49.084;19.300;2023-03-01T06:24:48;43.67;;;23.48;;
57111;SDS011;42992;49.084;19.300;2023-03-01T06:27:19;48.15;;;23.13;;
57111;SDS011;42992;49.084;19.300;2023-03-01T06:29:45;40.10;;;22.02;;
57111;SDS011;42992;49.084;19.300;2023-03-01T06:32:11;40.15;;;20.33;;
57111;SDS011;42992;49.084;19.300;2023-03-01T06:34:37;44.67;;;22.10;;
57111;SDS011;42992;49.084;19.300;2023-03-01T06:37:02;44.25;;;22.02;;
57111;SDS011;42992;49.084;19.300;2023-03-01T06:39:30;44.40;;;21.15;;
57111;SDS011;42992;49.084;19.300;2023-03-01T06:41:55;43.33;;;21.45;;
57111;SDS011;42992;49.084;19.300;2023-03-01T06:44:20;40.97;;;21.48;;
57111;SDS011;42992;49.084;19.300;2023-03-01T06:46:46;43.22;;;21.92;;
57111;SDS011;42992;49.084;19.300;2023-03-01T06:49:11;39.17;;;20.67;;
57111;SDS011;42992;49.084;19.300;2023-03-01T06:51:37;47.47;;;24.10;;
57111;SDS011;42992;49.084;19.300;2023-03-01T06:54:03;50.63;;;25.67;;
57111;SDS011;42992;49.084;19.300;2023-03-01T06:56:29;40.85;;;22.83;;
57111;SDS011;42992;49.084;19.300;2023-03-01T06:58:54;38.53;;;21.90;;
57111;SDS011;42992;49.084;19.300;2023-03-01T07:01:20;44.70;;;20.83;;
57111;SDS011;42992;49.084;19.300;2023-03-01T07:03:45;45.50;;;21.05;;
57111;SDS011;42992;49.084;19.300;2023-03-01T07:06:11;42.55;;;21.10;;
57111;SDS011;42992;49.084;19.300;2023-03-01T07:08:36;43.28;;;22.02;;
57111;SDS011;42992;49.084;19.300;2023-03-01T07:11:02;38.28;;;22.48;;
57111;SDS011;42992;49.084;19.300;2023-03-01T07:13:34;38.22;;;21.92;;
57111;SDS011;42992;49.084;19.300;2023-03-01T07:16:08;39.63;;;23.45;;
57111;SDS011;42992;49.084;19.300;2023-03-01T07:18:33;37.35;;;20.45;;
57111;SDS011;42992;49.084;19.300;2023-03-01T07:21:03;37.88;;;20.85;;
57111;SDS011;42992;49.084;19.300;2023-03-01T07:23:28;45.28;;;22.02;;
57111;SDS011;42992;49.084;19.300;2023-03-01T07:25:55;40.38;;;21.38;;
57111;SDS011;42992;49.084;19.300;2023-03-01T07:28:21;40.83;;;20.52;;
57111;SDS011;42992;49.084;19.300;2023-03-01T07:31:00;40.03;;;20.13;;
57111;SDS011;42992;49.084;19.300;2023-03-01T07:33:25;36.50;;;19.25;;
57111;SDS011;42992;49.084;19.300;2023-03-01T07:35:55;32.90;;;19.15;;
57111;SDS011;42992;49.084;19.300;2023-03-01T07:38:20;35.00;;;16.80;;
57111;SDS011;42992;49.084;19.300;2023-03-01T07:40:46;30.85;;;15.57;;
57111;SDS011;42992;49.084;19.300;2023-03-01T07:43:11;31.50;;;15.60;;
57111;SDS011;42992;49.084;19.300;2023-03-01T07:45:37;29.35;;;14.98;;
57111;SDS011;42992;49.084;19.300;2023-03-01T07:48:02;27.52;;;14.77;;
57111;SDS011;42992;49.084;19.300;2023-03-01T07:50:27;27.98;;;14.85;;
57111;SDS011;42992;49.084;19.300;2023-03-01T07:52:53;22.23;;;13.40;;
57111;SDS011;42992;49.084;19.300;2023-03-01T07:55:18;31.65;;;15.82;;
57111;SDS011;42992;49.084;19.300;2023-03-01T07:57:45;33.30;;;17.98;;
57111;SDS011;42992;49.084;19.300;2023-03-01T08:00:10;35.58;;;16.70;;
57111;SDS011;42992;49.084;19.300;2023-03-01T08:02:37;32.35;;;16.77;;
57111;SDS011;42992;49.084;19.300;2023-03-01T08:05:03;36.13;;;18.55;;
57111;SDS011;42992;49.084;19.300;2023-03-01T08:07:28;29.10;;;16.13;;
57111;SDS011;42992;49.084;19.300;2023-03-01T08:09:53;35.40;;;18.35;;
57111;SDS011;42992;49.084;19.300;2023-03-01T08:12:19;36.80;;;17.20;;
57111;SDS011;42992;49.084;19.300;2023-03-01T08:14:45;35.97;;;18.52;;
57111;SDS011;42992;49.084;19.300;2023-03-01T08:17:13;34.88;;;18.52;;
57111;SDS011;42992;49.084;19.300;2023-03-01T08:19:38;34.13;;;17.58;;
57111;SDS011;42992;49.084;19.300;2023-03-01T08:22:03;44.50;;;17.05;;
57111;SDS011;42992;49.084;19.300;2023-03-01T08:24:29;36.95;;;19.15;;
57111;SDS011;42992;49.084;19.300;2023-03-01T08:26:57;37.35;;;19.98;;
57111;SDS011;42992;49.084;19.300;2023-03-01T08:29:27;30.45;;;18.48;;
57111;SDS011;42992;49.084;19.300;2023-03-01T08:31:53;30.10;;;16.83;;
57111;SDS011;42992;49.084;19.300;2023-03-01T08:34:18;33.08;;;16.98;;
57111;SDS011;42992;49.084;19.300;2023-03-01T08:36:47;38.80;;;17.92;;
57111;SDS011;42992;49.084;19.300;2023-03-01T08:39:13;29.27;;;15.90;;
57111;SDS011;42992;49.084;19.300;2023-03-01T08:41:38;33.58;;;15.60;;
57111;SDS011;42992;49.084;19.300;2023-03-01T08:44:04;25.77;;;15.32;;
57111;SDS011;42992;49.084;19.300;2023-03-01T08:46:32;35.65;;;16.08;;
57111;SDS011;42992;49.084;19.300;2023-03-01T08:48:57;32.33;;;16.75;;
57111;SDS011;42992;49.084;19.300;2023-03-01T08:51:23;30.20;;;15.90;;
57111;SDS011;42992;49.084;19.300;2023-03-01T08:53:48;26.08;;;16.17;;
57111;SDS011;42992;49.084;19.300;2023-03-01T08:56:14;33.50;;;16.20;;
57111;SDS011;42992;49.084;19.300;2023-03-01T08:58:43;34.90;;;17.10;;
57111;SDS011;42992;49.084;19.300;2023-03-01T09:01:13;35.20;;;20.02;;
57111;SDS011;42992;49.084;19.300;2023-03-01T09:03:45;30.13;;;15.90;;
57111;SDS011;42992;49.084;19.300;2023-03-01T09:06:11;25.50;;;14.45;;
57111;SDS011;42992;49.084;19.300;2023-03-01T09:08:46;26.13;;;15.10;;
57111;SDS011;42992;49.084;19.300;2023-03-01T09:11:14;26.88;;;15.40;;
57111;SDS011;42992;49.084;19.300;2023-03-01T09:13:41;29.25;;;16.05;;
57111;SDS011;42992;49.084;19.300;2023-03-01T09:16:15;24.20;;;14.48;;
57111;SDS011;42992;49.084;19.300;2023-03-01T09:18:44;28.50;;;13.80;;
57111;SDS011;42992;49.084;19.300;2023-03-01T09:21:11;29.60;;;14.30;;
57111;SDS011;42992;49.084;19.300;2023-03-01T09:23:43;38.03;;;14.77;;
57111;SDS011;42992;49.084;19.300;2023-03-01T09:26:10;31.27;;;15.05;;
57111;SDS011;42992;49.084;19.300;2023-03-01T09:28:36;32.47;;;16.27;;
57111;SDS011;42992;49.084;19.300;2023-03-01T09:31:02;33.72;;;15.52;;
57111;SDS011;42992;49.084;19.300;2023-03-01T09:33:28;31.65;;;15.43;;
57111;SDS011;42992;49.084;19.300;2023-03-01T09:35:58;28.38;;;17.83;;
57111;SDS011;42992;49.084;19.300;2023-03-01T09:38:23;62.47;;;17.77;;
57111;SDS011;42992;49.084;19.300;2023-03-01T09:40:49;33.60;;;16.80;;
57111;SDS011;42992;49.084;19.300;2023-03-01T09:45:59;26.05;;;15.88;;
57111;SDS011;42992;49.084;19.300;2023-03-01T09:48:26;26.60;;;15.68;;
57111;SDS011;42992;49.084;19.300;2023-03-01T09:50:52;30.35;;;14.95;;
57111;SDS011;42992;49.084;19.300;2023-03-01T09:53:23;23.42;;;14.45;;
57111;SDS011;42992;49.084;19.300;2023-03-01T10:00:49;23.27;;;12.95;;
57111;SDS011;42992;49.084;19.300;2023-03-01T10:03:25;21.42;;;12.75;;
57111;SDS011;42992;49.084;19.300;2023-03-01T10:08:31;22.08;;;11.65;;
57111;SDS011;42992;49.084;19.300;2023-03-01T10:11:01;24.77;;;12.55;;
57111;SDS011;42992;49.084;19.300;2023-03-01T10:13:42;21.90;;;11.88;;
57111;SDS011;42992;49.084;19.300;2023-03-01T10:18:35;20.17;;;11.25;;
57111;SDS011;42992;49.084;19.300;2023-03-01T10:21:07;18.70;;;11.30;;
57111;SDS011;42992;49.084;19.300;2023-03-01T10:23:36;23.48;;;11.32;;
57111;SDS011;42992;49.084;19.300;2023-03-01T10:31:23;20.83;;;12.23;;
57111;SDS011;42992;49.084;19.300;2023-03-01T10:33:53;23.70;;;11.70;;
57111;SDS011;42992;49.084;19.300;2023-03-01T10:36:20;17.30;;;11.60;;
57111;SDS011;42992;49.084;19.300;2023-03-01T10:38:48;19.58;;;12.13;;
57111;SDS011;42992;49.084;19.300;2023-03-01T10:41:17;20.23;;;11.85;;
57111;SDS011;42992;49.084;19.300;2023-03-01T10:43:47;26.63;;;12.18;;
57111;SDS011;42992;49.084;19.300;2023-03-01T10:48:55;19.37;;;12.47;;
57111;SDS011;42992;49.084;19.300;2023-03-01T10:51:29;24.45;;;12.85;;
57111;SDS011;42992;49.084;19.300;2023-03-01T10:53:55;21.35;;;12.63;;
57111;SDS011;42992;49.084;19.300;2023-03-01T10:56:20;27.92;;;13.25;;
57111;SDS011;42992;49.084;19.300;2023-03-01T11:01:31;21.10;;;12.13;;
57111;SDS011;42992;49.084;19.300;2023-03-01T11:06:30;18.40;;;11.30;;
57111;SDS011;42992;49.084;19.300;2023-03-01T11:08:55;24.17;;;12.02;;
57111;SDS011;42992;49.084;19.300;2023-03-01T11:11:31;20.63;;;11.73;;
57111;SDS011;42992;49.084;19.300;2023-03-01T11:16:26;20.83;;;11.60;;
57111;SDS011;42992;49.084;19.300;2023-03-01T11:18:56;25.80;;;19.52;;
57111;SDS011;42992;49.084;19.300;2023-03-01T11:21:24;25.75;;;11.98;;
57111;SDS011;42992;49.084;19.300;2023-03-01T11:23:57;23.02;;;10.95;;
57111;SDS011;42992;49.084;19.300;2023-03-01T11:26:24;19.80;;;11.38;;
57111;SDS011;42992;49.084;19.300;2023-03-01T11:28:50;23.55;;;11.35;;
57111;SDS011;42992;49.084;19.300;2023-03-01T11:31:17;26.95;;;11.95;;
57111;SDS011;42992;49.084;19.300;2023-03-01T11:38:40;20.15;;;11.23;;
57111;SDS011;42992;49.084;19.300;2023-03-01T11:41:16;18.48;;;11.45;;
57111;SDS011;42992;49.084;19.300;2023-03-01T11:43:52;20.95;;;11.15;;
57111;SDS011;42992;49.084;19.300;2023-03-01T12:12:32;22.17;;;11.48;;
57111;SDS011;42992;49.084;19.300;2023-03-01T12:30:25;17.52;;;11.27;;
57111;SDS011;42992;49.084;19.300;2023-03-01T12:37:54;19.60;;;11.48;;
57111;SDS011;42992;49.084;19.300;2023-03-01T12:40:33;16.60;;;10.93;;
57111;SDS011;42992;49.084;19.300;2023-03-01T12:48:16;21.48;;;11.27;;
57111;SDS011;42992;49.084;19.300;2023-03-01T12:50:47;24.75;;;11.50;;
57111;SDS011;42992;49.084;19.300;2023-03-01T12:53:26;22.00;;;12.15;;
57111;SDS011;42992;49.084;19.300;2023-03-01T12:56:12;18.42;;;11.15;;
57111;SDS011;42992;49.084;19.300;2023-03-01T12:58:46;22.45;;;11.52;;
57111;SDS011;42992;49.084;19.300;2023-03-01T13:03:50;18.35;;;11.50;;
57111;SDS011;42992;49.084;19.300;2023-03-01T13:06:20;21.20;;;11.75;;
57111;SDS011;42992;49.084;19.300;2023-03-01T13:08:51;19.92;;;11.88;;
57111;SDS011;42992;49.084;19.300;2023-03-01T13:11:20;18.63;;;10.80;;
57111;SDS011;42992;49.084;19.300;2023-03-01T13:13:50;17.48;;;11.35;;
57111;SDS011;42992;49.084;19.300;2023-03-01T13:19:07;20.92;;;11.30;;
57111;SDS011;42992;49.084;19.300;2023-03-01T13:21:34;19.80;;;10.90;;
57111;SDS011;42992;49.084;19.300;2023-03-01T13:24:22;24.23;;;11.25;;
57111;SDS011;42992;49.084;19.300;2023-03-01T13:29:31;18.20;;;9.88;;
57111;SDS011;42992;49.084;19.300;2023-03-01T13:32:16;17.63;;;9.35;;
57111;SDS011;42992;49.084;19.300;2023-03-01T13:34:46;15.48;;;7.65;;
57111;SDS011;42992;49.084;19.300;2023-03-01T13:37:22;12.27;;;6.50;;
57111;SDS011;42992;49.084;19.300;2023-03-01T13:39:48;13.68;;;6.60;;
57111;SDS011;42992;49.084;19.300;2023-03-01T13:44:59;11.52;;;6.03;;
57111;SDS011;42992;49.084;19.300;2023-03-01T13:47:28;17.88;;;6.43;;
57111;SDS011;42992;49.084;19.300;2023-03-01T13:49:55;12.20;;;6.10;;
57111;SDS011;42992;49.084;19.300;2023-03-01T13:52:40;11.60;;;5.55;;
57111;SDS011;42992;49.084;19.300;2023-03-01T13:57:39;12.93;;;5.53;;
57111;SDS011;42992;49.084;19.300;2023-03-01T14:00:24;10.68;;;5.10;;
57111;SDS011;42992;49.084;19.300;2023-03-01T14:02:59;9.77;;;4.90;;
57111;SDS011;42992;49.084;19.300;2023-03-01T14:05:24;11.30;;;4.63;;
57111;SDS011;42992;49.084;19.300;2023-03-01T14:07:53;12.63;;;5.47;;
57111;SDS011;42992;49.084;19.300;2023-03-01T14:10:20;13.82;;;6.13;;
57111;SDS011;42992;49.084;19.300;2023-03-01T14:15:29;11.77;;;5.43;;
57111;SDS011;42992;49.084;19.300;2023-03-01T14:18:20;14.50;;;5.75;;
57111;SDS011;42992;49.084;19.300;2023-03-01T14:20:57;13.82;;;6.18;;
57111;SDS011;42992;49.084;19.300;2023-03-01T14:23:26;11.32;;;5.50;;
57111;SDS011;42992;49.084;19.300;2023-03-01T14:26:02;8.68;;;5.65;;
57111;SDS011;42992;49.084;19.300;2023-03-01T14:28:31;10.63;;;6.13;;
57111;SDS011;42992;49.084;19.300;2023-03-01T14:31:02;10.18;;;5.15;;
57111;SDS011;42992;49.084;19.300;2023-03-01T14:33:32;12.60;;;5.95;;
57111;SDS011;42992;49.084;19.300;2023-03-01T14:36:11;11.15;;;5.85;;
57111;SDS011;42992;49.084;19.300;2023-03-01T14:38:38;18.80;;;6.47;;
57111;SDS011;42992;49.084;19.300;2023-03-01T14:41:10;13.02;;;5.50;;
57111;SDS011;42992;49.084;19.300;2023-03-01T14:43:37;16.60;;;9.13;;
57111;SDS011;42992;49.084;19.300;2023-03-01T14:46:03;21.55;;;10.00;;
57111;SDS011;42992;49.084;19.300;2023-03-01T14:48:31;21.63;;;10.30;;
57111;SDS011;42992;49.084;19.300;2023-03-01T14:50:57;19.80;;;9.52;;
57111;SDS011;42992;49.084;19.300;2023-03-01T14:53:42;21.42;;;10.82;;
57111;SDS011;42992;49.084;19.300;2023-03-01T14:56:13;23.17;;;10.40;;
57111;SDS011;42992;49.084;19.300;2023-03-01T14:58:41;21.00;;;9.48;;
57111;SDS011;42992;49.084;19.300;2023-03-01T15:01:06;13.10;;;6.20;;
57111;SDS011;42992;49.084;19.300;2023-03-01T15:03:37;24.92;;;7.90;;
57111;SDS011;42992;49.084;19.300;2023-03-01T15:06:04;21.95;;;5.18;;
57111;SDS011;42992;49.084;19.300;2023-03-01T15:08:30;7.80;;;3.42;;
57111;SDS011;42992;49.084;19.300;2023-03-01T15:13:25;8.75;;;4.72;;
57111;SDS011;42992;49.084;19.300;2023-03-01T15:15:51;10.10;;;5.47;;
57111;SDS011;42992;49.084;19.300;2023-03-01T15:20:43;12.23;;;6.13;;
57111;SDS011;42992;49.084;19.300;2023-03-01T15:23:17;20.83;;;7.57;;
57111;SDS011;42992;49.084;19.300;2023-03-01T15:25:43;18.85;;;8.05;;
57111;SDS011;42992;49.084;19.300;2023-03-01T15:28:12;17.45;;;8.10;;
57111;SDS011;42992;49.084;19.300;2023-03-01T15:30:38;20.45;;;7.93;;
57111;SDS011;42992;49.084;19.300;2023-03-01T15:33:20;18.60;;;7.88;;
57111;SDS011;42992;49.084;19.300;2023-03-01T15:35:57;15.75;;;8.60;;
57111;SDS011;42992;49.084;19.300;2023-03-01T15:38:26;17.15;;;7.85;;
57111;SDS011;42992;49.084;19.300;2023-03-01T15:40:52;17.52;;;8.35;;
57111;SDS011;42992;49.084;19.300;2023-03-01T15:43:41;16.38;;;7.93;;
57111;SDS011;42992;49.084;19.300;2023-03-01T15:48:47;17.40;;;8.63;;
57111;SDS011;42992;49.084;19.300;2023-03-01T15:51:14;20.45;;;10.85;;
57111;SDS011;42992;49.084;19.300;2023-03-01T15:53:40;19.98;;;8.27;;
57111;SDS011;42992;49.084;19.300;2023-03-01T15:56:06;19.45;;;8.02;;
57111;SDS011;42992;49.084;19.300;2023-03-01T15:58:32;18.67;;;8.18;;
57111;SDS011;42992;49.084;19.300;2023-03-01T16:00:58;20.90;;;8.80;;
57111;SDS011;42992;49.084;19.300;2023-03-01T16:03:24;30.33;;;13.38;;
57111;SDS011;42992;49.084;19.300;2023-03-01T16:05:50;27.13;;;15.27;;
57111;SDS011;42992;49.084;19.300;2023-03-01T16:08:16;26.33;;;14.57;;
57111;SDS011;42992;49.084;19.300;2023-03-01T16:10:42;29.30;;;13.63;;